Flight Track Log - Related Links

Times and Time Zones

All times are in EDT time to prevent confusion due to time zone crossing. See the ARG1284 flight status page for this flight to view local times or setup timezone preferences in your user account.

Time Position Orientation Groundspeed Altitude Reporting Facility
EDT Latitude Longitude Course Direction KTS MPH feet Rate Location/Type
Thu 10:47:00 AM -34.5145 -59.1743 273° West  Level FlightAware Approximate
Thu 10:48:00 AM -34.5102 -59.2829 273° West  Level FlightAware Approximate
Thu 10:49:00 AM -34.5058 -59.3916 273° West  Level FlightAware Approximate
Thu 10:50:00 AM -34.5014 -59.5002 273° West  Level FlightAware Approximate
Thu 10:51:00 AM -34.4925 -59.6084 277° West  Level FlightAware Approximate
Thu 10:52:00 AM -34.4833 -59.7165 270° West  Level FlightAware Approximate
Thu 10:53:00 AM -34.4834 -59.8252 270° West  Level FlightAware Approximate
Thu 10:54:00 AM -34.4800 -59.9335 284° West  Level FlightAware Approximate
Thu 10:55:00 AM -34.4667 -60.0403 270° West  Level FlightAware Approximate
Thu 10:56:00 AM -34.4667 -60.1490 270° West  Level FlightAware Approximate
Thu 10:57:00 AM -34.4604 -60.2574 274° West  Level FlightAware Approximate
Thu 10:58:00 AM -34.4540 -60.3659 274° West  Level FlightAware Approximate
Thu 10:59:00 AM -34.4462 -60.4741 276° West  Level FlightAware Approximate
Thu 11:00:00 AM -34.4360 -60.5821 277° West  Level FlightAware Approximate
Thu 11:01:00 AM -34.4257 -60.6901 277° West  Level FlightAware Approximate
Thu 11:02:00 AM -34.4167 -60.7981 270° West  Level FlightAware Approximate
Thu 11:03:00 AM -34.4162 -60.9067 274° West  Level FlightAware Approximate
Thu 11:04:00 AM -34.4092 -61.0151 274° West  Level FlightAware Approximate
Thu 11:05:00 AM -34.4021 -61.1234 275° West  Level FlightAware Approximate
Thu 11:06:00 AM -34.3949 -61.2316 275° West  Level FlightAware Approximate
Thu 11:07:00 AM -34.3876 -61.3399 275° West  Level FlightAware Approximate
Thu 11:08:00 AM -34.3803 -61.4482 275° West  Level FlightAware Approximate
Thu 11:09:00 AM -34.3728 -61.5564 275° West  Level FlightAware Approximate
Thu 11:10:00 AM -34.3652 -61.6646 275° West  Level FlightAware Approximate
Thu 11:11:00 AM -34.3576 -61.7728 275° West  Level FlightAware Approximate
Thu 11:12:00 AM -34.3498 -61.8810 275° West  Level FlightAware Approximate
Thu 11:13:00 AM -34.3419 -61.9891 275° West  Level FlightAware Approximate
Thu 11:14:00 AM -34.3340 -62.0972 275° West  Level FlightAware Approximate
Thu 11:15:00 AM -34.3259 -62.2053 275° West  Level FlightAware Approximate
Thu 11:16:00 AM -34.3178 -62.3134 275° West  Level FlightAware Approximate
Thu 11:17:00 AM -34.3095 -62.4215 275° West  Level FlightAware Approximate
Thu 11:18:00 AM -34.3012 -62.5295 275° West  Level FlightAware Approximate
Thu 11:19:00 AM -34.2928 -62.6376 275° West  Level FlightAware Approximate
Thu 11:20:00 AM -34.2842 -62.7456 275° West  Level FlightAware Approximate
Thu 11:21:00 AM -34.2756 -62.8535 275° West  Level FlightAware Approximate
Thu 11:22:00 AM -34.2669 -62.9615 276° West  Level FlightAware Approximate
Thu 11:23:00 AM -34.2581 -63.0694 276° West  Level FlightAware Approximate
Thu 11:24:00 AM -34.2492 -63.1773 276° West  Level FlightAware Approximate
Thu 11:25:00 AM -34.2402 -63.2852 276° West  Level FlightAware Approximate
Thu 11:26:00 AM -34.2311 -63.3931 276° West  Level FlightAware Approximate
Thu 11:27:00 AM -34.2219 -63.5009 276° West  Level FlightAware Approximate
Thu 11:28:00 AM -34.2126 -63.6088 276° West  Level FlightAware Approximate
Thu 11:29:00 AM -34.2033 -63.7165 276° West  Level FlightAware Approximate
Thu 11:30:00 AM -34.1938 -63.8243 276° West  Level FlightAware Approximate
Thu 11:31:00 AM -34.1842 -63.9321 276° West  Level FlightAware Approximate
Thu 11:32:00 AM -34.1746 -64.0398 276° West  Level FlightAware Approximate
Thu 11:33:00 AM -34.1648 -64.1475 276° West  Level FlightAware Approximate
Thu 11:34:00 AM -34.1550 -64.2552 276° West  Level FlightAware Approximate
Thu 11:35:00 AM -34.1450 -64.3628 276° West  Level FlightAware Approximate
Thu 11:36:00 AM -34.1350 -64.4704 276° West  Level FlightAware Approximate
Thu 11:37:00 AM -34.1249 -64.5780 276° West  Level FlightAware Approximate
Thu 11:38:00 AM -34.1147 -64.6856 277° West  Level FlightAware Approximate
Thu 11:39:00 AM -34.1043 -64.7931 277° West  Level FlightAware Approximate
Thu 11:40:00 AM -34.0939 -64.9007 277° West  Level FlightAware Approximate
Thu 11:41:00 AM -34.0834 -65.0081 277° West  Level FlightAware Approximate
Thu 11:42:00 AM -34.0728 -65.1156 277° West  Level FlightAware Approximate
Thu 11:43:00 AM -34.0621 -65.2230 277° West  Level FlightAware Approximate
Thu 11:44:00 AM -34.0513 -65.3305 277° West  Level FlightAware Approximate
Thu 11:45:00 AM -34.0405 -65.4378 277° West  Level FlightAware Approximate
Thu 11:46:00 AM -34.0295 -65.5452 277° West  Level FlightAware Approximate
Thu 11:47:00 AM -34.0184 -65.6525 277° West  Level FlightAware Approximate
Thu 11:48:00 AM -34.0073 -65.7598 277° West  Level FlightAware Approximate
Thu 11:49:00 AM -33.9960 -65.8671 277° West  Level FlightAware Approximate
Thu 11:50:00 AM -33.9847 -65.9743 277° West  Level FlightAware Approximate
Thu 11:51:00 AM -33.9733 -66.0815 277° West  Level FlightAware Approximate
Thu 11:52:00 AM -33.9617 -66.1887 277° West  Level FlightAware Approximate
Thu 11:53:00 AM -33.9501 -66.2959 277° West  Level FlightAware Approximate
Thu 11:54:00 AM -33.9384 -66.4030 277° West  Level FlightAware Approximate
Thu 11:55:00 AM -33.9266 -66.5101 278° West  Level FlightAware Approximate
Thu 11:56:00 AM -33.9147 -66.6172 278° West  Level FlightAware Approximate
Thu 11:57:00 AM -33.9027 -66.7242 278° West  Level FlightAware Approximate
Thu 11:58:00 AM -33.8906 -66.8312 278° West  Level FlightAware Approximate
Thu 11:59:00 AM -33.8784 -66.9382 278° West  Level FlightAware Approximate
Thu 12:00:00 PM -33.8662 -67.0451 278° West  Level FlightAware Approximate
Thu 12:01:00 PM -33.8538 -67.1520 278° West  Level FlightAware Approximate
Thu 12:02:00 PM -33.8414 -67.2589 278° West  Level FlightAware Approximate
Thu 12:03:00 PM -33.8288 -67.3658 278° West  Level FlightAware Approximate
Thu 12:04:00 PM -33.8162 -67.4726 278° West  Level FlightAware Approximate
Thu 12:05:00 PM -33.8034 -67.5794 278° West  Level FlightAware Approximate
Thu 12:06:00 PM -33.7906 -67.6861 278° West  Level FlightAware Approximate
Thu 12:07:00 PM -33.7777 -67.7928 278° West  Level FlightAware Approximate
Thu 12:08:00 PM -33.7635 -67.8992 284° West  Level FlightAware Approximate
Thu 12:09:00 PM -33.7452 -68.0047 279° West  Level FlightAware Approximate
Thu 12:10:00 PM -33.7318 -68.1113 279° West  Level FlightAware Approximate
Thu 12:11:00 PM -33.7182 -68.2178 279° West  Level FlightAware Approximate
Thu 12:12:00 PM -33.7046 -68.3243 279° West  Level FlightAware Approximate
Thu 12:13:00 PM -33.6909 -68.4308 279° West  Level FlightAware Approximate
Thu 12:14:00 PM -33.6770 -68.5372 279° West  Level FlightAware Approximate
Thu 12:15:00 PM -33.6667 -68.6440 270° West  Level FlightAware Approximate
Thu 12:16:00 PM -33.6607 -68.7512 278° West  Level FlightAware Approximate
Thu 12:17:00 PM -33.6482 -68.8578 278° West  Level FlightAware Approximate
Thu 12:18:00 PM -33.6356 -68.9644 278° West  Level FlightAware Approximate
Thu 12:19:00 PM -33.6189 -69.0702 281° West  Level FlightAware Approximate
Thu 12:20:00 PM -33.6014 -69.1757 281° West  Level FlightAware Approximate
Thu 12:21:00 PM -33.5837 -69.2812 281° West  Level FlightAware Approximate
Thu 12:22:00 PM -33.5709 -69.3877 278° West  Level FlightAware Approximate
Thu 12:23:00 PM -33.5581 -69.4941 278° West  Level FlightAware Approximate
Thu 12:24:00 PM -33.5452 -69.6006 278° West  Level FlightAware Approximate
Thu 12:25:00 PM -33.5322 -69.7070 278° West  Level FlightAware Approximate
Thu 12:26:00 PM -33.5191 -69.8134 278° West  Level FlightAware Approximate
Thu 12:27:00 PM -33.5024 -69.9190 281° West  Level FlightAware Approximate
Thu 12:28:00 PM -33.4848 -70.0244 281° West  Level FlightAware Approximate
Thu 12:29:00 PM -33.4705 -70.1304 279° West  Level FlightAware Approximate
Thu 12:30:00 PM -33.4563 -70.2365 279° West  Level FlightAware Approximate
Thu 12:31:00 PM -33.4402 -70.3422 281° West  Level FlightAware Approximate
Thu 12:32:00 PM -33.4227 -70.4475 281° West  Level FlightAware Approximate
Thu 12:33:00 PM -33.4102 -70.5527 292° West  Level FlightAware Approximate
Thu 12:34:00 PM -33.3879 -70.6563 281° West  Level FlightAware Approximate
Thu 12:35:00 PM -33.3833 -70.7631 270° West  Level FlightAware Approximate
Thu 12:36:00 PM -33.3833 -70.7667 270° West  Level FlightAware Approximate
Thu 12:37:00 PM -33.3930 -70.7858 270° West  Level Estimated
Thu 12:38:00 PM -33.3930 -70.7858 270° West  Level Estimated
Thu 12:39:00 PM -33.3930 -70.7858 270° West  Level Estimated
Thu 12:40:00 PM -33.3930 -70.7858 270° West  Level Estimated
Thu 12:41:00 PM -33.3930 -70.7858 270° West  Level Estimated
Thu 12:42:00 PM -33.3930 -70.7858 270° West  Level Estimated
Thu 12:43:00 PM -33.3930 -70.7858 270° West  Level Estimated
Thu 12:44:00 PM -33.3930 -70.7858 270° West  Level Estimated
Thu 12:45:00 PM -33.3930 -70.7858 270° West  Level Estimated
Thu 12:46:00 PM -33.3930 -70.7858 270° West  Level Estimated
Thu 12:47:00 PM -33.3930 -70.7858 270° West  Level Estimated
Thu 12:48:00 PM -33.3930 -70.7858 270° West  Level Estimated

Login

Don't have an account? Register now (free) for customized features, flight alerts, and more!